createdAt,value
2023-05-12T00:00:13.209Z,4.07
2023-05-12T00:02:41.227Z,5.03
2023-05-12T00:05:08.580Z,4.78
2023-05-12T00:07:35.501Z,4.50
2023-05-12T00:10:02.679Z,4.65
2023-05-12T00:12:29.568Z,4.75
2023-05-12T00:14:56.363Z,4.53
2023-05-12T00:17:23.309Z,4.50
2023-05-12T00:19:50.201Z,4.10
2023-05-12T00:22:17.264Z,4.65
2023-05-12T00:24:44.455Z,5.10
2023-05-12T00:27:11.268Z,4.93
2023-05-12T00:29:38.167Z,4.72
2023-05-12T00:32:05.500Z,4.28
2023-05-12T00:34:32.454Z,4.40
2023-05-12T00:36:59.347Z,4.60
2023-05-12T00:39:26.247Z,4.53
2023-05-12T00:41:59.725Z,4.22
2023-05-12T00:44:27.048Z,4.63
2023-05-12T00:46:54.451Z,4.60
2023-05-12T00:49:21.591Z,5.00
2023-05-12T00:51:48.434Z,5.30
2023-05-12T00:54:15.401Z,5.18
2023-05-12T00:56:42.250Z,5.05
2023-05-12T00:59:09.800Z,5.38
2023-05-12T01:01:40.036Z,5.75
2023-05-12T01:04:07.333Z,5.95
2023-05-12T01:06:48.743Z,6.30
2023-05-12T01:09:16.168Z,5.85
2023-05-12T01:11:43.581Z,6.28
2023-05-12T01:14:10.478Z,6.20
2023-05-12T01:16:53.325Z,6.32
2023-05-12T01:19:47.747Z,6.97
2023-05-12T01:22:15.069Z,6.30
2023-05-12T01:24:52.056Z,6.30
2023-05-12T01:27:19.605Z,6.00
2023-05-12T01:29:47.074Z,5.75
2023-05-12T01:32:15.934Z,5.95
2023-05-12T01:34:45.280Z,6.47
2023-05-12T01:37:12.761Z,6.75
2023-05-12T01:39:40.620Z,6.70
2023-05-12T01:42:09.953Z,7.95
2023-05-12T01:44:36.859Z,6.93
2023-05-12T01:47:03.894Z,6.43
2023-05-12T01:49:33.091Z,6.93
2023-05-12T01:52:00.202Z,7.65
2023-05-12T01:54:30.260Z,8.82
2023-05-12T01:56:57.224Z,8.70
2023-05-12T01:59:24.713Z,10.23
2023-05-12T02:01:52.615Z,10.70
2023-05-12T02:04:29.109Z,11.27
2023-05-12T02:06:57.876Z,12.35
2023-05-12T02:09:24.825Z,12.30
2023-05-12T02:11:55.927Z,12.23
2023-05-12T02:14:23.003Z,13.80
2023-05-12T02:16:52.771Z,14.57
2023-05-12T02:19:21.954Z,14.95
2023-05-12T02:21:49.405Z,15.60
2023-05-12T02:24:18.963Z,15.43
2023-05-12T02:26:46.259Z,16.45
2023-05-12T02:29:13.691Z,15.88
2023-05-12T02:31:40.601Z,16.02
2023-05-12T02:34:16.749Z,18.08
2023-05-12T02:36:43.646Z,17.58
2023-05-12T02:39:11.847Z,18.27
2023-05-12T02:41:38.723Z,19.27
2023-05-12T02:44:05.626Z,19.13
2023-05-12T02:46:32.992Z,19.23
2023-05-12T02:48:59.941Z,21.73
2023-05-12T02:51:26.932Z,21.52
2023-05-12T02:53:53.803Z,21.73
2023-05-12T02:56:20.871Z,20.30
2023-05-12T02:58:47.937Z,21.00
2023-05-12T03:01:14.900Z,22.35
2023-05-12T03:03:42.349Z,21.35
2023-05-12T03:06:09.939Z,20.92
2023-05-12T03:08:36.956Z,21.52
2023-05-12T03:11:03.895Z,20.65
2023-05-12T03:13:30.760Z,21.02
2023-05-12T03:16:01.270Z,21.48
2023-05-12T03:18:29.134Z,19.77
2023-05-12T03:20:56.136Z,17.63
2023-05-12T03:23:24.649Z,16.83
2023-05-12T03:25:51.628Z,15.45
2023-05-12T03:28:18.584Z,14.55
2023-05-12T03:30:45.671Z,15.90
2023-05-12T03:33:12.516Z,13.40
2023-05-12T03:35:39.475Z,13.63
2023-05-12T03:38:06.697Z,12.73
2023-05-12T03:40:33.667Z,12.40
2023-05-12T03:43:00.524Z,14.05
2023-05-12T03:45:27.351Z,12.48
2023-05-12T03:47:54.205Z,12.00
2023-05-12T03:50:21.264Z,13.05
2023-05-12T03:52:48.311Z,13.95
2023-05-12T03:55:15.160Z,14.30
2023-05-12T03:57:42.975Z,13.48
2023-05-12T04:00:10.848Z,12.95
2023-05-12T04:02:43.934Z,13.88
2023-05-12T04:05:11.028Z,14.52
2023-05-12T04:07:38.280Z,14.43
2023-05-12T04:10:05.589Z,13.52
2023-05-12T04:12:32.804Z,13.57
2023-05-12T04:15:00.214Z,12.85
2023-05-12T04:17:27.165Z,11.85
2023-05-12T04:19:54.181Z,12.25
2023-05-12T04:22:22.787Z,12.23
2023-05-12T04:24:51.459Z,11.35
2023-05-12T04:27:18.478Z,12.02
2023-05-12T04:29:45.495Z,12.52
2023-05-12T04:32:12.341Z,12.20
2023-05-12T04:34:39.283Z,12.43
2023-05-12T04:37:07.166Z,11.65
2023-05-12T04:39:34.555Z,11.82
2023-05-12T04:42:02.373Z,11.43
2023-05-12T04:44:31.592Z,11.80
2023-05-12T04:46:58.764Z,10.20
2023-05-12T04:49:25.622Z,10.93
2023-05-12T04:51:52.451Z,11.23
2023-05-12T04:54:19.255Z,11.07
2023-05-12T04:56:46.243Z,10.32
2023-05-12T04:59:15.805Z,10.85
2023-05-12T05:01:43.995Z,10.40
2023-05-12T05:04:10.992Z,11.80
2023-05-12T05:06:37.971Z,10.95
2023-05-12T05:09:05.286Z,11.07
2023-05-12T05:11:32.679Z,10.98
2023-05-12T05:13:59.547Z,11.20
2023-05-12T05:16:26.628Z,10.60
2023-05-12T05:18:53.594Z,10.35
2023-05-12T05:21:20.517Z,11.18
2023-05-12T05:23:47.345Z,10.93
2023-05-12T05:26:14.554Z,10.93
2023-05-12T05:28:41.425Z,11.48
2023-05-12T05:31:08.669Z,10.43
2023-05-12T05:33:35.616Z,9.82
2023-05-12T05:36:03.897Z,10.00
2023-05-12T05:38:32.717Z,10.05
2023-05-12T05:40:59.539Z,9.65
2023-05-12T05:43:27.672Z,9.23
2023-05-12T05:45:57.040Z,9.98
2023-05-12T05:48:24.808Z,9.52
2023-05-12T05:50:52.113Z,10.48
2023-05-12T05:53:20.273Z,10.30
2023-05-12T05:55:48.588Z,10.80
2023-05-12T05:58:15.800Z,11.32
2023-05-12T06:00:43.590Z,10.30
2023-05-12T06:03:10.491Z,10.90
2023-05-12T06:05:37.846Z,10.05
2023-05-12T06:08:05.348Z,10.32
2023-05-12T06:10:32.303Z,10.38
2023-05-12T06:12:59.214Z,10.27
2023-05-12T06:15:26.054Z,9.80
2023-05-12T06:17:52.961Z,9.00
2023-05-12T06:20:20.287Z,9.18
2023-05-12T06:22:47.310Z,9.50
2023-05-12T06:25:14.198Z,9.15
2023-05-12T06:27:41.171Z,9.43
2023-05-12T06:30:09.514Z,8.95
2023-05-12T06:32:36.377Z,9.45
2023-05-12T06:35:03.398Z,8.90
2023-05-12T06:37:30.212Z,9.07
2023-05-12T06:39:56.981Z,9.32
2023-05-12T06:42:25.256Z,8.60
2023-05-12T06:44:52.209Z,9.02
2023-05-12T06:47:21.109Z,8.60
2023-05-12T06:49:50.056Z,8.18
2023-05-12T06:52:17.120Z,8.82
2023-05-12T06:54:43.956Z,9.15
2023-05-12T06:57:10.876Z,7.93
2023-05-12T06:59:37.793Z,8.02
2023-05-12T07:02:04.728Z,8.30
2023-05-12T07:04:31.547Z,8.00
2023-05-12T07:06:58.589Z,7.93
2023-05-12T07:09:25.444Z,8.13
2023-05-12T07:11:52.289Z,7.40
2023-05-12T07:14:19.146Z,7.50
2023-05-12T07:16:46.818Z,7.03
2023-05-12T07:19:13.806Z,7.45
2023-05-12T07:21:40.657Z,6.93
2023-05-12T07:24:07.658Z,7.07
2023-05-12T07:26:34.542Z,6.93
2023-05-12T07:29:02.557Z,6.53
2023-05-12T07:31:29.468Z,6.30
2023-05-12T07:33:56.528Z,6.78
2023-05-12T07:36:23.416Z,6.53
2023-05-12T07:38:50.278Z,6.75
2023-05-12T07:41:17.935Z,6.63
2023-05-12T07:43:45.540Z,5.60
2023-05-12T07:46:12.387Z,4.25
2023-05-12T07:48:40.423Z,4.10
2023-05-12T07:51:08.024Z,3.90
2023-05-12T07:53:35.103Z,4.60
2023-05-12T07:56:02.034Z,3.80
2023-05-12T07:58:28.956Z,3.53
2023-05-12T08:00:57.040Z,3.55
2023-05-12T08:03:24.169Z,3.63
2023-05-12T08:05:51.048Z,3.45
2023-05-12T08:08:17.872Z,3.30
2023-05-12T08:10:44.712Z,3.22
2023-05-12T08:13:11.601Z,2.90
2023-05-12T08:15:38.775Z,3.10
2023-05-12T08:18:05.608Z,3.25
2023-05-12T08:20:32.494Z,3.13
2023-05-12T08:22:59.297Z,2.60
2023-05-12T08:25:27.839Z,2.80
2023-05-12T08:27:54.828Z,2.70
2023-05-12T08:30:21.602Z,2.60
2023-05-12T08:32:48.575Z,2.55
2023-05-12T08:35:15.466Z,2.70
2023-05-12T08:37:42.403Z,2.53
2023-05-12T08:40:18.328Z,3.05
2023-05-12T08:42:50.519Z,2.70
2023-05-12T08:45:18.122Z,2.42
2023-05-12T08:47:46.043Z,2.30
2023-05-12T08:50:12.904Z,2.38
2023-05-12T08:52:39.776Z,3.28
2023-05-12T08:55:07.402Z,2.60
2023-05-12T08:57:34.221Z,2.42
2023-05-12T09:00:01.022Z,2.42
2023-05-12T09:02:37.726Z,2.50
2023-05-12T09:05:11.867Z,2.35
2023-05-12T09:07:42.185Z,2.33
2023-05-12T09:10:17.151Z,2.53
2023-05-12T09:12:49.536Z,2.20
2023-05-12T09:15:19.279Z,2.42
2023-05-12T09:17:46.224Z,2.17
2023-05-12T09:20:23.833Z,2.55
2023-05-12T09:22:58.239Z,2.78
2023-05-12T09:25:24.978Z,2.00
2023-05-12T09:27:54.990Z,1.95
2023-05-12T09:30:31.822Z,2.08
2023-05-12T09:33:11.908Z,2.10
2023-05-12T09:35:43.414Z,1.95
2023-05-12T09:38:11.798Z,1.92
2023-05-12T09:40:38.660Z,1.70
2023-05-12T09:43:08.726Z,2.08
2023-05-12T09:45:36.440Z,2.17
2023-05-12T09:48:11.045Z,2.03
2023-05-12T09:50:50.351Z,2.00
2023-05-12T09:53:18.996Z,2.10
2023-05-12T09:55:46.535Z,2.08
2023-05-12T09:58:16.084Z,2.30
2023-05-12T10:01:06.043Z,1.90
2023-05-12T10:03:30.357Z,2.00
2023-05-12T10:06:05.644Z,2.22
2023-05-12T10:08:49.705Z,2.88
2023-05-12T10:11:16.636Z,2.58
2023-05-12T10:13:43.560Z,2.50
2023-05-12T10:16:10.519Z,2.42
2023-05-12T10:18:37.425Z,2.42
2023-05-12T10:21:04.537Z,2.20
2023-05-12T10:23:31.329Z,2.50
2023-05-12T10:26:01.999Z,2.33
2023-05-12T10:28:29.278Z,2.40
2023-05-12T10:30:57.276Z,2.40
2023-05-12T10:33:24.828Z,2.40
2023-05-12T10:35:52.479Z,2.40
2023-05-12T10:38:22.413Z,2.22
2023-05-12T10:40:58.904Z,2.38
2023-05-12T10:43:30.052Z,2.35
2023-05-12T10:46:09.802Z,2.58
2023-05-12T10:48:38.261Z,2.60
2023-05-12T10:51:09.443Z,2.35
2023-05-12T10:53:48.656Z,2.85
2023-05-12T10:56:29.368Z,2.58
2023-05-12T10:59:17.726Z,2.83
2023-05-12T11:01:58.942Z,2.55
2023-05-12T11:04:53.864Z,2.50
2023-05-12T11:07:39.903Z,2.55
2023-05-12T11:10:08.050Z,2.50
2023-05-12T11:12:38.131Z,2.60
2023-05-12T11:15:06.018Z,2.80
2023-05-12T11:17:33.249Z,2.30
2023-05-12T11:20:01.501Z,2.67
2023-05-12T11:22:30.295Z,2.60
2023-05-12T11:25:02.232Z,2.65
2023-05-12T11:27:29.797Z,2.60
2023-05-12T11:30:01.334Z,2.60
2023-05-12T11:32:44.032Z,2.70
2023-05-12T11:35:29.043Z,2.45
2023-05-12T11:38:01.624Z,2.30
2023-05-12T11:40:29.071Z,2.50
2023-05-12T11:42:58.654Z,2.60
2023-05-12T11:45:34.232Z,3.08
2023-05-12T11:48:07.932Z,2.80
2023-05-12T11:50:35.926Z,2.80
2023-05-12T11:53:02.731Z,2.90
2023-05-12T11:55:29.726Z,2.53
2023-05-12T11:58:01.223Z,2.40
2023-05-12T12:00:35.152Z,2.20
2023-05-12T12:03:12.961Z,2.50
2023-05-12T12:05:40.941Z,2.20
2023-05-12T12:08:09.409Z,2.20
2023-05-12T12:10:36.543Z,2.22
2023-05-12T12:13:03.558Z,3.50
2023-05-12T12:15:30.801Z,2.78
2023-05-12T12:18:04.426Z,2.33
2023-05-12T12:20:36.067Z,2.30
2023-05-12T12:23:08.665Z,2.30
2023-05-12T12:25:39.988Z,2.40
2023-05-12T12:28:15.910Z,2.40
2023-05-12T12:30:43.157Z,2.53
2023-05-12T12:33:10.192Z,2.10
2023-05-12T12:35:37.104Z,1.95
2023-05-12T12:38:04.644Z,2.65
2023-05-12T12:40:31.517Z,2.55
2023-05-12T12:42:58.358Z,2.40
2023-05-12T12:45:25.575Z,2.28
2023-05-12T12:47:54.741Z,2.40
2023-05-12T12:50:22.133Z,2.65
2023-05-12T12:52:49.244Z,2.50
2023-05-12T12:55:16.364Z,2.53
2023-05-12T12:57:43.286Z,2.85
2023-05-12T13:00:10.626Z,3.20
2023-05-12T13:02:37.865Z,3.60
2023-05-12T13:05:07.045Z,3.42
2023-05-12T13:07:34.527Z,3.10
2023-05-12T13:10:01.399Z,3.38
2023-05-12T13:12:30.460Z,3.63
2023-05-12T13:14:57.547Z,3.10
2023-05-12T13:17:24.762Z,3.55
2023-05-12T13:19:52.665Z,3.95
2023-05-12T13:22:19.521Z,3.97
2023-05-12T13:24:46.812Z,4.00
2023-05-12T13:27:13.616Z,3.95
2023-05-12T13:29:42.276Z,4.70
2023-05-12T13:32:09.234Z,4.70
2023-05-12T13:34:36.128Z,4.03
2023-05-12T13:37:03.516Z,4.70
2023-05-12T13:39:30.438Z,4.57
2023-05-12T13:41:57.224Z,4.40
2023-05-12T13:44:24.155Z,4.20
2023-05-12T13:46:51.193Z,4.30
2023-05-12T13:49:19.786Z,5.32
2023-05-12T13:51:46.740Z,5.25
2023-05-12T13:54:13.666Z,5.13
2023-05-12T13:56:40.511Z,5.55
2023-05-12T13:59:09.380Z,5.30
2023-05-12T14:01:36.367Z,5.80
2023-05-12T14:04:03.567Z,5.95
2023-05-12T14:06:30.518Z,6.38
2023-05-12T14:08:57.312Z,6.70
2023-05-12T14:11:24.385Z,6.55
2023-05-12T14:13:51.290Z,7.20
2023-05-12T14:16:18.200Z,7.40
2023-05-12T14:18:45.116Z,6.78
2023-05-12T14:21:12.049Z,7.45
2023-05-12T14:23:38.871Z,7.28
2023-05-12T14:26:06.972Z,8.07
2023-05-12T14:28:34.242Z,8.70
2023-05-12T14:31:02.757Z,7.82
2023-05-12T14:33:29.626Z,8.90
2023-05-12T14:36:06.534Z,8.75
2023-05-12T14:38:35.161Z,9.13
2023-05-12T14:41:02.059Z,9.10
2023-05-12T14:43:28.844Z,9.35
2023-05-12T14:45:55.733Z,8.57
2023-05-12T14:48:23.509Z,9.30
2023-05-12T14:50:56.795Z,8.85
2023-05-12T14:53:23.767Z,9.32
2023-05-12T14:56:20.276Z,10.23
2023-05-12T14:59:11.405Z,9.77
2023-05-12T15:04:44.349Z,9.60
2023-05-12T15:13:20.339Z,9.93
2023-05-12T15:15:47.366Z,9.98
2023-05-12T15:18:46.449Z,9.45
2023-05-12T15:21:20.831Z,9.32
2023-05-12T15:23:50.667Z,9.73
2023-05-12T15:26:32.658Z,9.73
2023-05-12T15:29:02.846Z,9.68
2023-05-12T15:31:52.229Z,10.20
2023-05-12T15:34:55.572Z,9.93
2023-05-12T15:37:22.703Z,10.52
2023-05-12T15:39:51.126Z,10.07
2023-05-12T15:42:22.362Z,10.40
2023-05-12T15:44:53.764Z,9.98
2023-05-12T15:47:20.603Z,9.90
2023-05-12T15:49:48.117Z,10.13
2023-05-12T15:52:15.054Z,10.13
2023-05-12T15:55:02.991Z,10.77
2023-05-12T15:57:29.829Z,10.07
2023-05-12T15:59:58.732Z,10.48
2023-05-12T16:02:25.878Z,10.63
2023-05-12T16:04:52.812Z,10.25
2023-05-12T16:07:19.718Z,10.55
2023-05-12T16:09:46.788Z,10.10
2023-05-12T16:12:15.277Z,10.88
2023-05-12T16:14:42.253Z,9.85
2023-05-12T16:17:09.577Z,10.02
2023-05-12T16:19:36.495Z,10.98
2023-05-12T16:22:03.437Z,11.15
2023-05-12T16:24:30.301Z,11.25
2023-05-12T16:26:57.119Z,10.60
2023-05-12T16:29:23.935Z,11.23
2023-05-12T16:31:51.213Z,10.45
2023-05-12T16:34:19.260Z,10.70
2023-05-12T16:36:46.190Z,10.55
2023-05-12T16:39:13.127Z,10.90
2023-05-12T16:41:40.076Z,10.55
2023-05-12T16:44:07.073Z,10.93
2023-05-12T16:46:34.028Z,10.38
2023-05-12T16:49:01.051Z,9.57
2023-05-12T16:51:32.075Z,9.70
2023-05-12T16:53:58.986Z,9.68
2023-05-12T16:56:27.395Z,9.35
2023-05-12T16:58:54.227Z,10.18
2023-05-12T17:01:21.315Z,10.00
2023-05-12T17:03:48.480Z,10.05
2023-05-12T17:06:15.497Z,10.00
2023-05-12T17:08:42.362Z,9.90
2023-05-12T17:11:09.657Z,11.07
2023-05-12T17:13:38.138Z,10.40
2023-05-12T17:16:05.345Z,10.48
2023-05-12T17:18:32.362Z,11.13
2023-05-12T17:20:59.257Z,10.27
2023-05-12T17:23:26.884Z,10.95
2023-05-12T17:25:54.005Z,11.07
2023-05-12T17:28:21.272Z,11.10
2023-05-12T17:30:48.449Z,10.82
2023-05-12T17:33:15.648Z,12.00
2023-05-12T17:35:42.807Z,11.10
2023-05-12T17:38:09.732Z,11.05
2023-05-12T17:40:36.929Z,11.32
2023-05-12T17:43:04.315Z,11.85
2023-05-12T17:45:31.265Z,11.30
2023-05-12T17:47:58.370Z,11.43
2023-05-12T17:50:25.284Z,10.75
2023-05-12T17:52:53.366Z,11.43
2023-05-12T17:55:20.473Z,11.75
2023-05-12T17:57:49.308Z,11.35
2023-05-12T18:00:16.881Z,10.75
2023-05-12T18:02:45.276Z,10.88
2023-05-12T18:05:15.828Z,11.33
2023-05-12T18:07:42.746Z,11.25
2023-05-12T18:10:10.124Z,12.10
2023-05-12T18:12:37.786Z,11.90
2023-05-12T18:15:05.134Z,11.20
2023-05-12T18:17:32.506Z,12.32
2023-05-12T18:19:59.494Z,10.93
2023-05-12T18:22:26.502Z,12.23
2023-05-12T18:24:53.461Z,12.65
2023-05-12T18:27:20.438Z,12.30
2023-05-12T18:29:47.376Z,12.93
2023-05-12T18:32:14.228Z,11.23
2023-05-12T18:34:44.052Z,12.48
2023-05-12T18:37:14.370Z,12.73
2023-05-12T18:39:46.736Z,11.27
2023-05-12T18:44:42.805Z,10.85
2023-05-12T18:47:11.100Z,11.68
2023-05-12T18:49:39.447Z,11.98
2023-05-12T18:52:06.413Z,13.30
2023-05-12T18:54:33.301Z,11.88
2023-05-12T18:57:02.728Z,12.73
2023-05-12T18:59:29.677Z,12.50
2023-05-12T19:01:59.176Z,11.63
2023-05-12T19:04:26.257Z,13.02
2023-05-12T19:06:53.122Z,11.73
2023-05-12T19:09:20.079Z,11.85
2023-05-12T19:11:47.115Z,12.13
2023-05-12T19:14:15.941Z,12.18
2023-05-12T19:16:43.061Z,11.85
2023-05-12T19:19:10.092Z,11.13
2023-05-12T19:21:37.258Z,11.82
2023-05-12T19:24:04.298Z,12.38
2023-05-12T19:26:31.238Z,12.15
2023-05-12T19:28:58.386Z,13.13
2023-05-12T19:31:25.404Z,11.23
2023-05-12T19:33:52.242Z,12.38
2023-05-12T19:36:19.169Z,11.52
2023-05-12T19:38:46.097Z,10.88
2023-05-12T19:41:12.934Z,11.75
2023-05-12T19:43:39.893Z,11.80
2023-05-12T19:46:06.865Z,10.98
2023-05-12T19:48:33.687Z,10.80
2023-05-12T19:51:00.686Z,11.82
2023-05-12T19:53:27.520Z,11.73
2023-05-12T19:55:54.452Z,11.68
2023-05-12T19:58:21.325Z,11.57
2023-05-12T20:00:48.274Z,11.90
2023-05-12T20:03:15.431Z,11.30
2023-05-12T20:05:42.658Z,11.38
2023-05-12T20:08:09.580Z,11.35
2023-05-12T20:10:36.388Z,11.02
2023-05-12T20:13:03.834Z,11.65
2023-05-12T20:15:31.303Z,12.20
2023-05-12T20:17:58.334Z,11.25
2023-05-12T20:20:25.353Z,11.55
2023-05-12T20:22:52.345Z,11.68
2023-05-12T20:25:19.893Z,11.68
2023-05-12T20:27:47.099Z,12.27
2023-05-12T20:30:14.097Z,11.25
2023-05-12T20:32:41.096Z,11.40
2023-05-12T20:35:09.143Z,11.25
2023-05-12T20:37:36.072Z,11.27
2023-05-12T20:40:03.472Z,11.38
2023-05-12T20:42:30.934Z,11.90
2023-05-12T20:44:59.085Z,10.88
2023-05-12T20:47:26.273Z,10.65
2023-05-12T20:49:57.318Z,11.43
2023-05-12T20:52:24.686Z,10.15
2023-05-12T20:54:56.862Z,9.82
2023-05-12T20:57:23.860Z,11.32
2023-05-12T20:59:52.655Z,10.85
2023-05-12T21:02:19.935Z,10.98
2023-05-12T21:04:46.775Z,11.05
2023-05-12T21:07:13.638Z,10.93
2023-05-12T21:09:40.544Z,11.88
2023-05-12T21:12:07.731Z,11.15
2023-05-12T21:14:43.548Z,11.20
2023-05-12T21:17:10.663Z,12.00
2023-05-12T21:19:38.368Z,11.23
2023-05-12T21:22:05.884Z,10.95
2023-05-12T21:24:33.138Z,11.45
2023-05-12T21:27:03.431Z,11.45
2023-05-12T21:29:31.504Z,11.18
2023-05-12T21:31:58.468Z,11.75
2023-05-12T21:34:25.812Z,11.60
2023-05-12T21:36:52.782Z,11.35
2023-05-12T21:39:22.021Z,11.35
2023-05-12T21:41:49.187Z,11.70
2023-05-12T21:44:16.289Z,10.80
2023-05-12T21:46:43.367Z,10.95
2023-05-12T21:49:10.664Z,11.73
2023-05-12T21:51:37.560Z,11.75
2023-05-12T21:54:04.446Z,11.52
2023-05-12T21:56:31.381Z,11.98
2023-05-12T21:58:58.244Z,11.73
2023-05-12T22:01:25.190Z,12.07
2023-05-12T22:03:52.170Z,11.30
2023-05-12T22:06:19.188Z,11.93
2023-05-12T22:08:46.054Z,12.10
2023-05-12T22:11:12.967Z,11.85
2023-05-12T22:13:39.895Z,12.00
2023-05-12T22:16:06.980Z,12.40
2023-05-12T22:18:35.040Z,12.57
2023-05-12T22:21:01.934Z,12.30
2023-05-12T22:23:28.832Z,12.35
2023-05-12T22:25:56.032Z,12.30
2023-05-12T22:28:22.857Z,12.95
2023-05-12T22:30:49.824Z,12.95
2023-05-12T22:33:16.677Z,12.02
2023-05-12T22:35:43.538Z,12.38
2023-05-12T22:38:10.467Z,11.43
2023-05-12T22:40:37.343Z,11.57
2023-05-12T22:43:04.275Z,12.10
2023-05-12T22:45:31.228Z,13.35
2023-05-12T22:47:58.433Z,11.00
2023-05-12T22:50:25.441Z,12.15
2023-05-12T22:52:57.090Z,11.85
2023-05-12T22:55:30.496Z,11.02
2023-05-12T22:57:58.105Z,11.95
2023-05-12T23:00:24.999Z,11.68
2023-05-12T23:02:52.040Z,11.98
2023-05-12T23:05:19.272Z,11.90
2023-05-12T23:07:46.406Z,10.93
2023-05-12T23:10:13.372Z,10.82
2023-05-12T23:12:40.296Z,10.98
2023-05-12T23:15:07.761Z,11.20
2023-05-12T23:17:34.717Z,10.90
2023-05-12T23:20:01.747Z,10.38
2023-05-12T23:22:28.624Z,10.27
2023-05-12T23:24:56.710Z,11.10
2023-05-12T23:27:24.416Z,10.48
2023-05-12T23:29:51.364Z,10.50
2023-05-12T23:32:18.439Z,10.00
2023-05-12T23:34:45.468Z,11.27
2023-05-12T23:37:12.374Z,10.90
2023-05-12T23:39:39.452Z,10.65
2023-05-12T23:42:06.613Z,10.38
2023-05-12T23:44:35.706Z,11.73
2023-05-12T23:47:02.650Z,10.95
2023-05-12T23:49:29.650Z,10.88
2023-05-12T23:51:56.650Z,11.55
2023-05-12T23:54:23.617Z,10.43
2023-05-12T23:56:50.551Z,10.65
2023-05-12T23:59:17.444Z,11.30
